sensor_id;sensor_type;location;lat;lon;timestamp;P1;durP1;ratioP1;P2;durP2;ratioP2
15677;SDS011;7939;50.814;6.368;2022-07-09T00:00:05;1.92;;;1.63;;
15677;SDS011;7939;50.814;6.368;2022-07-09T00:02:32;2.47;;;1.80;;
15677;SDS011;7939;50.814;6.368;2022-07-09T00:04:59;2.30;;;1.85;;
15677;SDS011;7939;50.814;6.368;2022-07-09T00:07:26;3.05;;;1.98;;
15677;SDS011;7939;50.814;6.368;2022-07-09T00:09:53;4.25;;;1.70;;
15677;SDS011;7939;50.814;6.368;2022-07-09T00:12:19;1.60;;;1.50;;
15677;SDS011;7939;50.814;6.368;2022-07-09T00:14:46;2.53;;;2.00;;
15677;SDS011;7939;50.814;6.368;2022-07-09T00:17:14;2.38;;;1.80;;
15677;SDS011;7939;50.814;6.368;2022-07-09T00:19:41;4.18;;;1.80;;
15677;SDS011;7939;50.814;6.368;2022-07-09T00:22:08;3.40;;;1.88;;
15677;SDS011;7939;50.814;6.368;2022-07-09T00:24:34;2.00;;;1.80;;
15677;SDS011;7939;50.814;6.368;2022-07-09T00:27:01;2.28;;;1.67;;
15677;SDS011;7939;50.814;6.368;2022-07-09T00:29:28;2.20;;;2.00;;
15677;SDS011;7939;50.814;6.368;2022-07-09T00:31:54;2.22;;;1.73;;
15677;SDS011;7939;50.814;6.368;2022-07-09T00:34:22;2.13;;;1.90;;
15677;SDS011;7939;50.814;6.368;2022-07-09T00:36:49;2.42;;;1.65;;
15677;SDS011;7939;50.814;6.368;2022-07-09T00:39:15;3.47;;;2.15;;
15677;SDS011;7939;50.814;6.368;2022-07-09T00:41:42;2.65;;;1.90;;
15677;SDS011;7939;50.814;6.368;2022-07-09T00:44:08;2.85;;;2.17;;
15677;SDS011;7939;50.814;6.368;2022-07-09T00:46:35;2.13;;;1.75;;
15677;SDS011;7939;50.814;6.368;2022-07-09T00:49:02;4.35;;;2.10;;
15677;SDS011;7939;50.814;6.368;2022-07-09T00:51:32;2.28;;;2.00;;
15677;SDS011;7939;50.814;6.368;2022-07-09T00:53:59;2.60;;;1.83;;
15677;SDS011;7939;50.814;6.368;2022-07-09T00:56:28;3.28;;;1.80;;
15677;SDS011;7939;50.814;6.368;2022-07-09T00:58:56;1.92;;;1.75;;
15677;SDS011;7939;50.814;6.368;2022-07-09T01:01:24;2.08;;;1.70;;
15677;SDS011;7939;50.814;6.368;2022-07-09T01:03:50;2.83;;;1.98;;
15677;SDS011;7939;50.814;6.368;2022-07-09T01:06:17;2.13;;;1.73;;
15677;SDS011;7939;50.814;6.368;2022-07-09T01:08:45;2.55;;;1.98;;
15677;SDS011;7939;50.814;6.368;2022-07-09T01:11:11;2.90;;;1.90;;
15677;SDS011;7939;50.814;6.368;2022-07-09T01:13:38;2.60;;;2.10;;
15677;SDS011;7939;50.814;6.368;2022-07-09T01:16:10;4.20;;;2.35;;
15677;SDS011;7939;50.814;6.368;2022-07-09T01:18:38;3.15;;;2.03;;
15677;SDS011;7939;50.814;6.368;2022-07-09T01:21:06;2.42;;;2.00;;
15677;SDS011;7939;50.814;6.368;2022-07-09T01:23:32;3.08;;;1.95;;
15677;SDS011;7939;50.814;6.368;2022-07-09T01:25:59;2.17;;;1.80;;
15677;SDS011;7939;50.814;6.368;2022-07-09T01:28:26;2.75;;;1.80;;
15677;SDS011;7939;50.814;6.368;2022-07-09T01:30:53;4.30;;;3.03;;
15677;SDS011;7939;50.814;6.368;2022-07-09T01:33:19;1.92;;;1.77;;
15677;SDS011;7939;50.814;6.368;2022-07-09T01:35:46;2.15;;;1.95;;
15677;SDS011;7939;50.814;6.368;2022-07-09T01:38:14;2.75;;;2.20;;
15677;SDS011;7939;50.814;6.368;2022-07-09T01:40:40;3.15;;;2.03;;
15677;SDS011;7939;50.814;6.368;2022-07-09T01:43:07;3.72;;;2.08;;
15677;SDS011;7939;50.814;6.368;2022-07-09T01:45:33;3.92;;;2.40;;
15677;SDS011;7939;50.814;6.368;2022-07-09T01:48:00;4.03;;;2.20;;
15677;SDS011;7939;50.814;6.368;2022-07-09T01:50:27;2.97;;;2.13;;
15677;SDS011;7939;50.814;6.368;2022-07-09T01:52:53;2.17;;;1.95;;
15677;SDS011;7939;50.814;6.368;2022-07-09T01:55:22;2.72;;;2.33;;
15677;SDS011;7939;50.814;6.368;2022-07-09T01:57:48;2.65;;;2.20;;
15677;SDS011;7939;50.814;6.368;2022-07-09T02:00:15;3.22;;;2.55;;
15677;SDS011;7939;50.814;6.368;2022-07-09T02:02:43;4.22;;;2.40;;
15677;SDS011;7939;50.814;6.368;2022-07-09T02:05:10;2.30;;;2.10;;
15677;SDS011;7939;50.814;6.368;2022-07-09T02:07:37;3.17;;;2.08;;
15677;SDS011;7939;50.814;6.368;2022-07-09T02:10:04;2.88;;;2.33;;
15677;SDS011;7939;50.814;6.368;2022-07-09T02:12:32;3.55;;;2.90;;
15677;SDS011;7939;50.814;6.368;2022-07-09T02:14:59;5.25;;;2.30;;
15677;SDS011;7939;50.814;6.368;2022-07-09T02:17:25;2.50;;;2.30;;
15677;SDS011;7939;50.814;6.368;2022-07-09T02:19:52;3.00;;;2.70;;
15677;SDS011;7939;50.814;6.368;2022-07-09T02:22:18;5.40;;;2.88;;
15677;SDS011;7939;50.814;6.368;2022-07-09T02:24:45;3.75;;;3.33;;
15677;SDS011;7939;50.814;6.368;2022-07-09T02:27:12;2.85;;;2.65;;
15677;SDS011;7939;50.814;6.368;2022-07-09T02:29:40;2.58;;;2.05;;
15677;SDS011;7939;50.814;6.368;2022-07-09T02:32:07;3.53;;;2.00;;
15677;SDS011;7939;50.814;6.368;2022-07-09T02:34:35;2.58;;;2.38;;
15677;SDS011;7939;50.814;6.368;2022-07-09T02:37:02;3.53;;;2.17;;
15677;SDS011;7939;50.814;6.368;2022-07-09T02:39:29;2.30;;;2.08;;
15677;SDS011;7939;50.814;6.368;2022-07-09T02:41:55;3.00;;;2.13;;
15677;SDS011;7939;50.814;6.368;2022-07-09T02:44:22;2.63;;;2.03;;
15677;SDS011;7939;50.814;6.368;2022-07-09T02:46:50;3.55;;;2.15;;
15677;SDS011;7939;50.814;6.368;2022-07-09T02:49:16;4.97;;;3.08;;
15677;SDS011;7939;50.814;6.368;2022-07-09T02:51:43;3.17;;;2.67;;
15677;SDS011;7939;50.814;6.368;2022-07-09T02:54:09;4.40;;;2.30;;
15677;SDS011;7939;50.814;6.368;2022-07-09T02:56:36;4.25;;;2.67;;
15677;SDS011;7939;50.814;6.368;2022-07-09T02:59:03;3.45;;;2.53;;
15677;SDS011;7939;50.814;6.368;2022-07-09T03:01:29;3.30;;;2.35;;
15677;SDS011;7939;50.814;6.368;2022-07-09T03:03:57;2.80;;;2.60;;
15677;SDS011;7939;50.814;6.368;2022-07-09T03:06:24;3.30;;;2.58;;
15677;SDS011;7939;50.814;6.368;2022-07-09T03:08:51;3.22;;;2.50;;
15677;SDS011;7939;50.814;6.368;2022-07-09T03:11:17;3.25;;;2.50;;
15677;SDS011;7939;50.814;6.368;2022-07-09T03:13:44;2.85;;;2.25;;
15677;SDS011;7939;50.814;6.368;2022-07-09T03:16:10;3.15;;;2.30;;
15677;SDS011;7939;50.814;6.368;2022-07-09T03:18:37;3.30;;;2.97;;
15677;SDS011;7939;50.814;6.368;2022-07-09T03:21:06;3.17;;;2.60;;
15677;SDS011;7939;50.814;6.368;2022-07-09T03:23:33;2.38;;;2.17;;
15677;SDS011;7939;50.814;6.368;2022-07-09T03:26:00;4.75;;;2.80;;
15677;SDS011;7939;50.814;6.368;2022-07-09T03:28:27;4.65;;;2.83;;
15677;SDS011;7939;50.814;6.368;2022-07-09T03:30:53;6.13;;;2.90;;
15677;SDS011;7939;50.814;6.368;2022-07-09T03:33:20;2.90;;;2.70;;
15677;SDS011;7939;50.814;6.368;2022-07-09T03:35:47;3.90;;;2.85;;
15677;SDS011;7939;50.814;6.368;2022-07-09T03:38:15;3.08;;;2.85;;
15677;SDS011;7939;50.814;6.368;2022-07-09T03:40:42;2.95;;;2.65;;
15677;SDS011;7939;50.814;6.368;2022-07-09T03:43:09;2.90;;;2.22;;
15677;SDS011;7939;50.814;6.368;2022-07-09T03:45:36;2.63;;;2.42;;
15677;SDS011;7939;50.814;6.368;2022-07-09T03:48:03;3.75;;;2.60;;
15677;SDS011;7939;50.814;6.368;2022-07-09T03:50:30;2.58;;;2.38;;
15677;SDS011;7939;50.814;6.368;2022-07-09T03:52:57;3.78;;;2.85;;
15677;SDS011;7939;50.814;6.368;2022-07-09T03:55:25;3.95;;;2.50;;
15677;SDS011;7939;50.814;6.368;2022-07-09T03:57:51;3.20;;;2.85;;
15677;SDS011;7939;50.814;6.368;2022-07-09T04:00:18;4.53;;;2.45;;
15677;SDS011;7939;50.814;6.368;2022-07-09T04:02:44;3.97;;;2.75;;
15677;SDS011;7939;50.814;6.368;2022-07-09T04:05:11;5.38;;;2.65;;
15677;SDS011;7939;50.814;6.368;2022-07-09T04:07:38;2.30;;;2.08;;
15677;SDS011;7939;50.814;6.368;2022-07-09T04:10:06;2.80;;;2.60;;
15677;SDS011;7939;50.814;6.368;2022-07-09T04:12:35;2.60;;;2.40;;
15677;SDS011;7939;50.814;6.368;2022-07-09T04:15:02;2.72;;;2.53;;
15677;SDS011;7939;50.814;6.368;2022-07-09T04:17:28;2.85;;;2.50;;
15677;SDS011;7939;50.814;6.368;2022-07-09T04:19:55;2.95;;;2.40;;
15677;SDS011;7939;50.814;6.368;2022-07-09T04:22:22;3.08;;;2.47;;
15677;SDS011;7939;50.814;6.368;2022-07-09T04:24:49;4.13;;;2.40;;
15677;SDS011;7939;50.814;6.368;2022-07-09T04:27:15;3.78;;;2.65;;
15677;SDS011;7939;50.814;6.368;2022-07-09T04:29:43;5.60;;;2.80;;
15677;SDS011;7939;50.814;6.368;2022-07-09T04:32:09;3.08;;;2.40;;
15677;SDS011;7939;50.814;6.368;2022-07-09T04:34:38;4.47;;;2.53;;
15677;SDS011;7939;50.814;6.368;2022-07-09T04:37:04;2.42;;;2.22;;
15677;SDS011;7939;50.814;6.368;2022-07-09T04:39:31;6.13;;;2.88;;
15677;SDS011;7939;50.814;6.368;2022-07-09T04:41:58;3.88;;;3.08;;
15677;SDS011;7939;50.814;6.368;2022-07-09T04:44:25;4.35;;;2.63;;
15677;SDS011;7939;50.814;6.368;2022-07-09T04:46:53;3.22;;;2.60;;
15677;SDS011;7939;50.814;6.368;2022-07-09T04:49:20;3.85;;;2.92;;
15677;SDS011;7939;50.814;6.368;2022-07-09T04:51:49;4.25;;;3.28;;
15677;SDS011;7939;50.814;6.368;2022-07-09T04:54:16;3.80;;;2.88;;
15677;SDS011;7939;50.814;6.368;2022-07-09T04:56:42;4.90;;;3.20;;
15677;SDS011;7939;50.814;6.368;2022-07-09T04:59:09;3.85;;;2.97;;
15677;SDS011;7939;50.814;6.368;2022-07-09T05:01:36;3.35;;;3.05;;
15677;SDS011;7939;50.814;6.368;2022-07-09T05:04:04;5.22;;;2.95;;
15677;SDS011;7939;50.814;6.368;2022-07-09T05:06:31;4.85;;;2.92;;
15677;SDS011;7939;50.814;6.368;2022-07-09T05:08:58;4.70;;;3.13;;
15677;SDS011;7939;50.814;6.368;2022-07-09T05:11:25;4.07;;;3.05;;
15677;SDS011;7939;50.814;6.368;2022-07-09T05:13:51;4.97;;;3.50;;
15677;SDS011;7939;50.814;6.368;2022-07-09T05:16:18;5.25;;;3.20;;
15677;SDS011;7939;50.814;6.368;2022-07-09T05:18:45;4.60;;;3.40;;
15677;SDS011;7939;50.814;6.368;2022-07-09T05:21:12;3.53;;;3.20;;
15677;SDS011;7939;50.814;6.368;2022-07-09T05:23:39;4.90;;;3.22;;
15677;SDS011;7939;50.814;6.368;2022-07-09T05:26:06;4.45;;;3.88;;
15677;SDS011;7939;50.814;6.368;2022-07-09T05:28:32;4.85;;;3.78;;
15677;SDS011;7939;50.814;6.368;2022-07-09T05:30:59;5.72;;;3.78;;
15677;SDS011;7939;50.814;6.368;2022-07-09T05:33:26;4.38;;;3.95;;
15677;SDS011;7939;50.814;6.368;2022-07-09T05:35:52;3.78;;;3.45;;
15677;SDS011;7939;50.814;6.368;2022-07-09T05:38:20;3.88;;;3.03;;
15677;SDS011;7939;50.814;6.368;2022-07-09T05:40:47;4.55;;;3.70;;
15677;SDS011;7939;50.814;6.368;2022-07-09T05:43:13;3.40;;;3.10;;
15677;SDS011;7939;50.814;6.368;2022-07-09T05:45:40;6.60;;;4.10;;
15677;SDS011;7939;50.814;6.368;2022-07-09T05:48:06;4.10;;;3.50;;
15677;SDS011;7939;50.814;6.368;2022-07-09T05:50:33;6.68;;;3.65;;
15677;SDS011;7939;50.814;6.368;2022-07-09T05:52:59;6.60;;;4.65;;
15677;SDS011;7939;50.814;6.368;2022-07-09T05:55:27;5.65;;;4.20;;
15677;SDS011;7939;50.814;6.368;2022-07-09T05:57:54;6.68;;;5.07;;
15677;SDS011;7939;50.814;6.368;2022-07-09T06:00:22;7.53;;;5.55;;
15677;SDS011;7939;50.814;6.368;2022-07-09T06:02:48;5.70;;;5.10;;
15677;SDS011;7939;50.814;6.368;2022-07-09T06:05:15;5.28;;;4.65;;
15677;SDS011;7939;50.814;6.368;2022-07-09T06:07:44;10.27;;;5.68;;
15677;SDS011;7939;50.814;6.368;2022-07-09T06:10:11;12.05;;;6.68;;
15677;SDS011;7939;50.814;6.368;2022-07-09T06:12:40;9.38;;;6.45;;
15677;SDS011;7939;50.814;6.368;2022-07-09T06:15:08;6.88;;;5.53;;
15677;SDS011;7939;50.814;6.368;2022-07-09T06:17:35;8.73;;;6.95;;
15677;SDS011;7939;50.814;6.368;2022-07-09T06:20:02;10.30;;;5.50;;
15677;SDS011;7939;50.814;6.368;2022-07-09T06:22:29;7.20;;;5.10;;
15677;SDS011;7939;50.814;6.368;2022-07-09T06:24:56;7.80;;;5.75;;
15677;SDS011;7939;50.814;6.368;2022-07-09T06:27:23;6.65;;;5.78;;
15677;SDS011;7939;50.814;6.368;2022-07-09T06:29:52;9.00;;;5.18;;
15677;SDS011;7939;50.814;6.368;2022-07-09T06:32:18;6.13;;;4.80;;
15677;SDS011;7939;50.814;6.368;2022-07-09T06:34:45;8.40;;;5.97;;
15677;SDS011;7939;50.814;6.368;2022-07-09T06:37:12;8.68;;;5.85;;
15677;SDS011;7939;50.814;6.368;2022-07-09T06:39:38;7.07;;;5.28;;
15677;SDS011;7939;50.814;6.368;2022-07-09T06:42:11;8.20;;;5.65;;
15677;SDS011;7939;50.814;6.368;2022-07-09T06:44:39;6.88;;;5.07;;
15677;SDS011;7939;50.814;6.368;2022-07-09T06:47:07;6.63;;;5.45;;
15677;SDS011;7939;50.814;6.368;2022-07-09T06:49:34;7.65;;;5.40;;
15677;SDS011;7939;50.814;6.368;2022-07-09T06:52:01;9.35;;;5.40;;
15677;SDS011;7939;50.814;6.368;2022-07-09T06:54:28;7.47;;;5.38;;
15677;SDS011;7939;50.814;6.368;2022-07-09T06:56:55;6.88;;;5.45;;
15677;SDS011;7939;50.814;6.368;2022-07-09T06:59:22;7.07;;;3.90;;
15677;SDS011;7939;50.814;6.368;2022-07-09T07:01:49;6.93;;;4.25;;
15677;SDS011;7939;50.814;6.368;2022-07-09T07:04:17;4.18;;;3.58;;
15677;SDS011;7939;50.814;6.368;2022-07-09T07:06:45;5.78;;;4.15;;
15677;SDS011;7939;50.814;6.368;2022-07-09T07:09:13;8.55;;;3.67;;
15677;SDS011;7939;50.814;6.368;2022-07-09T07:11:40;5.03;;;3.40;;
15677;SDS011;7939;50.814;6.368;2022-07-09T07:14:07;5.05;;;3.95;;
15677;SDS011;7939;50.814;6.368;2022-07-09T07:16:34;7.53;;;4.18;;
15677;SDS011;7939;50.814;6.368;2022-07-09T07:19:00;4.88;;;3.45;;
15677;SDS011;7939;50.814;6.368;2022-07-09T07:21:29;8.70;;;3.67;;
15677;SDS011;7939;50.814;6.368;2022-07-09T07:23:56;5.07;;;3.80;;
15677;SDS011;7939;50.814;6.368;2022-07-09T07:26:22;4.97;;;3.30;;
15677;SDS011;7939;50.814;6.368;2022-07-09T07:28:49;4.78;;;3.35;;
15677;SDS011;7939;50.814;6.368;2022-07-09T07:31:16;5.90;;;3.58;;
15677;SDS011;7939;50.814;6.368;2022-07-09T07:33:42;4.85;;;3.67;;
15677;SDS011;7939;50.814;6.368;2022-07-09T07:36:09;5.47;;;3.00;;
15677;SDS011;7939;50.814;6.368;2022-07-09T07:38:37;5.20;;;3.80;;
15677;SDS011;7939;50.814;6.368;2022-07-09T07:41:04;4.68;;;3.28;;
15677;SDS011;7939;50.814;6.368;2022-07-09T07:43:30;3.25;;;2.70;;
15677;SDS011;7939;50.814;6.368;2022-07-09T07:45:57;4.55;;;2.80;;
15677;SDS011;7939;50.814;6.368;2022-07-09T07:48:23;4.85;;;2.88;;
15677;SDS011;7939;50.814;6.368;2022-07-09T07:50:52;4.93;;;2.70;;
15677;SDS011;7939;50.814;6.368;2022-07-09T07:53:19;4.43;;;2.25;;
15677;SDS011;7939;50.814;6.368;2022-07-09T07:55:47;2.47;;;2.28;;
15677;SDS011;7939;50.814;6.368;2022-07-09T07:58:14;4.15;;;2.33;;
15677;SDS011;7939;50.814;6.368;2022-07-09T08:00:41;6.20;;;2.70;;
15677;SDS011;7939;50.814;6.368;2022-07-09T08:03:07;2.80;;;2.42;;
15677;SDS011;7939;50.814;6.368;2022-07-09T08:05:34;6.40;;;2.78;;
15677;SDS011;7939;50.814;6.368;2022-07-09T08:08:00;6.13;;;3.03;;
15677;SDS011;7939;50.814;6.368;2022-07-09T08:10:27;4.40;;;2.70;;
15677;SDS011;7939;50.814;6.368;2022-07-09T08:12:55;11.35;;;3.97;;
15677;SDS011;7939;50.814;6.368;2022-07-09T08:15:22;2.97;;;2.63;;
15677;SDS011;7939;50.814;6.368;2022-07-09T08:17:49;4.88;;;3.40;;
15677;SDS011;7939;50.814;6.368;2022-07-09T08:20:15;4.32;;;2.63;;
15677;SDS011;7939;50.814;6.368;2022-07-09T08:22:42;3.70;;;2.20;;
15677;SDS011;7939;50.814;6.368;2022-07-09T08:25:08;5.07;;;2.55;;
15677;SDS011;7939;50.814;6.368;2022-07-09T08:27:35;3.25;;;2.30;;
15677;SDS011;7939;50.814;6.368;2022-07-09T08:30:03;1.83;;;1.65;;
15677;SDS011;7939;50.814;6.368;2022-07-09T08:32:30;3.70;;;2.10;;
15677;SDS011;7939;50.814;6.368;2022-07-09T08:34:57;3.15;;;2.33;;
15677;SDS011;7939;50.814;6.368;2022-07-09T08:37:24;4.18;;;2.22;;
15677;SDS011;7939;50.814;6.368;2022-07-09T08:39:51;4.60;;;2.83;;
15677;SDS011;7939;50.814;6.368;2022-07-09T08:42:17;4.97;;;2.80;;
15677;SDS011;7939;50.814;6.368;2022-07-09T08:44:46;3.17;;;2.40;;
15677;SDS011;7939;50.814;6.368;2022-07-09T08:47:15;3.30;;;2.28;;
15677;SDS011;7939;50.814;6.368;2022-07-09T08:49:42;3.13;;;1.95;;
15677;SDS011;7939;50.814;6.368;2022-07-09T08:52:11;5.00;;;2.00;;
15677;SDS011;7939;50.814;6.368;2022-07-09T08:54:40;2.13;;;1.90;;
15677;SDS011;7939;50.814;6.368;2022-07-09T08:57:10;2.60;;;1.55;;
15677;SDS011;7939;50.814;6.368;2022-07-09T08:59:37;4.15;;;1.77;;
15677;SDS011;7939;50.814;6.368;2022-07-09T09:02:04;2.92;;;1.63;;
15677;SDS011;7939;50.814;6.368;2022-07-09T09:04:33;4.55;;;1.88;;
15677;SDS011;7939;50.814;6.368;2022-07-09T09:07:00;3.60;;;2.33;;
15677;SDS011;7939;50.814;6.368;2022-07-09T09:09:37;4.25;;;1.80;;
15677;SDS011;7939;50.814;6.368;2022-07-09T09:12:05;3.45;;;2.08;;
15677;SDS011;7939;50.814;6.368;2022-07-09T09:14:32;3.75;;;2.00;;
15677;SDS011;7939;50.814;6.368;2022-07-09T09:17:02;2.92;;;2.05;;
15677;SDS011;7939;50.814;6.368;2022-07-09T09:19:30;2.88;;;1.80;;
15677;SDS011;7939;50.814;6.368;2022-07-09T09:21:58;3.22;;;1.65;;
15677;SDS011;7939;50.814;6.368;2022-07-09T09:24:25;2.00;;;1.50;;
15677;SDS011;7939;50.814;6.368;2022-07-09T09:26:55;2.20;;;1.60;;
15677;SDS011;7939;50.814;6.368;2022-07-09T09:29:24;2.55;;;1.60;;
15677;SDS011;7939;50.814;6.368;2022-07-09T09:31:51;2.58;;;1.65;;
15677;SDS011;7939;50.814;6.368;2022-07-09T09:34:18;2.33;;;1.30;;
15677;SDS011;7939;50.814;6.368;2022-07-09T09:36:46;3.28;;;2.10;;
15677;SDS011;7939;50.814;6.368;2022-07-09T09:39:17;3.33;;;1.70;;
15677;SDS011;7939;50.814;6.368;2022-07-09T09:41:45;2.10;;;1.45;;
15677;SDS011;7939;50.814;6.368;2022-07-09T09:44:14;3.40;;;1.50;;
15677;SDS011;7939;50.814;6.368;2022-07-09T09:46:43;2.38;;;1.20;;
15677;SDS011;7939;50.814;6.368;2022-07-09T09:49:11;1.85;;;1.23;;
15677;SDS011;7939;50.814;6.368;2022-07-09T09:51:42;1.73;;;1.10;;
15677;SDS011;7939;50.814;6.368;2022-07-09T09:54:13;4.75;;;1.27;;
15677;SDS011;7939;50.814;6.368;2022-07-09T09:56:42;2.97;;;1.40;;
15677;SDS011;7939;50.814;6.368;2022-07-09T09:59:09;4.22;;;1.75;;
15677;SDS011;7939;50.814;6.368;2022-07-09T10:01:36;1.17;;;1.05;;
15677;SDS011;7939;50.814;6.368;2022-07-09T10:04:04;0.80;;;0.80;;
15677;SDS011;7939;50.814;6.368;2022-07-09T10:06:31;1.38;;;1.00;;
15677;SDS011;7939;50.814;6.368;2022-07-09T10:09:00;2.25;;;1.02;;
15677;SDS011;7939;50.814;6.368;2022-07-09T10:11:36;2.45;;;1.00;;
15677;SDS011;7939;50.814;6.368;2022-07-09T10:14:05;1.20;;;1.10;;
15677;SDS011;7939;50.814;6.368;2022-07-09T10:16:33;1.30;;;1.00;;
15677;SDS011;7939;50.814;6.368;2022-07-09T10:19:01;2.30;;;1.10;;
15677;SDS011;7939;50.814;6.368;2022-07-09T10:21:34;2.20;;;1.00;;
15677;SDS011;7939;50.814;6.368;2022-07-09T10:24:02;1.58;;;0.90;;
15677;SDS011;7939;50.814;6.368;2022-07-09T10:26:44;1.15;;;1.00;;
15677;SDS011;7939;50.814;6.368;2022-07-09T10:29:24;1.45;;;1.10;;
15677;SDS011;7939;50.814;6.368;2022-07-09T10:31:52;1.65;;;1.17;;
15677;SDS011;7939;50.814;6.368;2022-07-09T10:34:27;3.08;;;1.23;;
15677;SDS011;7939;50.814;6.368;2022-07-09T10:36:58;3.20;;;1.30;;
15677;SDS011;7939;50.814;6.368;2022-07-09T10:39:25;1.30;;;1.20;;
15677;SDS011;7939;50.814;6.368;2022-07-09T10:41:58;4.60;;;1.48;;
15677;SDS011;7939;50.814;6.368;2022-07-09T10:44:27;1.30;;;1.20;;
15677;SDS011;7939;50.814;6.368;2022-07-09T10:46:55;1.60;;;1.30;;
15677;SDS011;7939;50.814;6.368;2022-07-09T10:49:23;1.30;;;1.20;;
15677;SDS011;7939;50.814;6.368;2022-07-09T10:51:54;2.55;;;1.40;;
15677;SDS011;7939;50.814;6.368;2022-07-09T10:54:22;1.73;;;1.40;;
15677;SDS011;7939;50.814;6.368;2022-07-09T10:56:49;3.30;;;1.27;;
15677;SDS011;7939;50.814;6.368;2022-07-09T10:59:15;3.15;;;1.40;;
15677;SDS011;7939;50.814;6.368;2022-07-09T11:01:44;1.77;;;1.42;;
15677;SDS011;7939;50.814;6.368;2022-07-09T11:04:11;2.85;;;1.63;;
15677;SDS011;7939;50.814;6.368;2022-07-09T11:06:43;1.42;;;1.20;;
15677;SDS011;7939;50.814;6.368;2022-07-09T11:09:11;1.48;;;1.38;;
15677;SDS011;7939;50.814;6.368;2022-07-09T11:11:41;1.50;;;1.40;;
15677;SDS011;7939;50.814;6.368;2022-07-09T11:14:08;5.15;;;2.30;;
15677;SDS011;7939;50.814;6.368;2022-07-09T11:16:35;3.05;;;1.40;;
15677;SDS011;7939;50.814;6.368;2022-07-09T11:19:13;2.00;;;1.60;;
15677;SDS011;7939;50.814;6.368;2022-07-09T11:21:39;4.88;;;2.13;;
15677;SDS011;7939;50.814;6.368;2022-07-09T11:24:11;2.80;;;2.00;;
15677;SDS011;7939;50.814;6.368;2022-07-09T11:26:39;3.83;;;2.35;;
15677;SDS011;7939;50.814;6.368;2022-07-09T11:29:06;6.43;;;2.60;;
15677;SDS011;7939;50.814;6.368;2022-07-09T11:31:33;3.00;;;2.45;;
15677;SDS011;7939;50.814;6.368;2022-07-09T11:34:00;2.47;;;2.28;;
15677;SDS011;7939;50.814;6.368;2022-07-09T11:36:41;1.80;;;1.70;;
15677;SDS011;7939;50.814;6.368;2022-07-09T11:39:08;1.95;;;1.55;;
15677;SDS011;7939;50.814;6.368;2022-07-09T11:41:41;4.78;;;2.10;;
15677;SDS011;7939;50.814;6.368;2022-07-09T11:44:09;2.75;;;1.85;;
15677;SDS011;7939;50.814;6.368;2022-07-09T11:46:37;4.72;;;2.75;;
15677;SDS011;7939;50.814;6.368;2022-07-09T11:49:13;3.42;;;1.73;;
15677;SDS011;7939;50.814;6.368;2022-07-09T11:51:41;2.22;;;1.85;;
15677;SDS011;7939;50.814;6.368;2022-07-09T11:54:09;3.08;;;2.22;;
15677;SDS011;7939;50.814;6.368;2022-07-09T11:56:39;2.38;;;1.70;;
15677;SDS011;7939;50.814;6.368;2022-07-09T11:59:08;2.60;;;1.80;;
15677;SDS011;7939;50.814;6.368;2022-07-09T12:01:35;2.75;;;2.20;;
15677;SDS011;7939;50.814;6.368;2022-07-09T12:04:02;3.10;;;2.10;;
15677;SDS011;7939;50.814;6.368;2022-07-09T12:06:30;4.28;;;3.00;;
15677;SDS011;7939;50.814;6.368;2022-07-09T12:09:02;2.88;;;2.58;;
15677;SDS011;7939;50.814;6.368;2022-07-09T12:11:30;7.10;;;2.55;;
15677;SDS011;7939;50.814;6.368;2022-07-09T12:13:57;3.00;;;2.20;;
15677;SDS011;7939;50.814;6.368;2022-07-09T12:16:23;3.03;;;1.98;;
15677;SDS011;7939;50.814;6.368;2022-07-09T12:18:50;2.67;;;2.13;;
15677;SDS011;7939;50.814;6.368;2022-07-09T12:21:17;2.40;;;2.20;;
15677;SDS011;7939;50.814;6.368;2022-07-09T12:23:44;4.00;;;2.33;;
15677;SDS011;7939;50.814;6.368;2022-07-09T12:26:12;3.08;;;2.75;;
15677;SDS011;7939;50.814;6.368;2022-07-09T12:28:39;3.42;;;2.00;;
15677;SDS011;7939;50.814;6.368;2022-07-09T12:31:08;4.43;;;2.13;;
15677;SDS011;7939;50.814;6.368;2022-07-09T12:33:34;2.58;;;2.20;;
15677;SDS011;7939;50.814;6.368;2022-07-09T12:36:01;3.03;;;2.65;;
15677;SDS011;7939;50.814;6.368;2022-07-09T12:38:28;3.40;;;2.33;;
15677;SDS011;7939;50.814;6.368;2022-07-09T12:40:55;4.95;;;2.38;;
15677;SDS011;7939;50.814;6.368;2022-07-09T12:43:23;2.65;;;2.00;;
15677;SDS011;7939;50.814;6.368;2022-07-09T12:45:50;2.42;;;2.22;;
15677;SDS011;7939;50.814;6.368;2022-07-09T12:48:17;2.65;;;2.20;;
15677;SDS011;7939;50.814;6.368;2022-07-09T12:50:43;5.78;;;2.42;;
15677;SDS011;7939;50.814;6.368;2022-07-09T12:53:10;2.50;;;2.22;;
15677;SDS011;7939;50.814;6.368;2022-07-09T12:55:36;2.80;;;2.30;;
15677;SDS011;7939;50.814;6.368;2022-07-09T12:58:03;4.63;;;2.25;;
15677;SDS011;7939;50.814;6.368;2022-07-09T13:00:31;3.08;;;2.08;;
15677;SDS011;7939;50.814;6.368;2022-07-09T13:02:58;4.40;;;2.65;;
15677;SDS011;7939;50.814;6.368;2022-07-09T13:05:25;4.38;;;2.70;;
15677;SDS011;7939;50.814;6.368;2022-07-09T13:07:52;2.78;;;2.53;;
15677;SDS011;7939;50.814;6.368;2022-07-09T13:10:18;4.70;;;2.65;;
15677;SDS011;7939;50.814;6.368;2022-07-09T13:12:45;3.70;;;2.80;;
15677;SDS011;7939;50.814;6.368;2022-07-09T13:15:12;6.80;;;4.22;;
15677;SDS011;7939;50.814;6.368;2022-07-09T13:17:41;6.95;;;3.70;;
15677;SDS011;7939;50.814;6.368;2022-07-09T13:20:08;3.53;;;3.03;;
15677;SDS011;7939;50.814;6.368;2022-07-09T13:22:35;3.60;;;3.28;;
15677;SDS011;7939;50.814;6.368;2022-07-09T13:25:01;4.68;;;3.78;;
15677;SDS011;7939;50.814;6.368;2022-07-09T13:27:28;8.32;;;6.28;;
15677;SDS011;7939;50.814;6.368;2022-07-09T13:29:56;14.68;;;10.50;;
15677;SDS011;7939;50.814;6.368;2022-07-09T13:32:22;16.48;;;11.45;;
15677;SDS011;7939;50.814;6.368;2022-07-09T13:34:50;12.93;;;11.52;;
15677;SDS011;7939;50.814;6.368;2022-07-09T13:37:17;14.95;;;13.30;;
15677;SDS011;7939;50.814;6.368;2022-07-09T13:39:44;18.88;;;14.38;;
15677;SDS011;7939;50.814;6.368;2022-07-09T13:42:11;14.32;;;12.85;;
15677;SDS011;7939;50.814;6.368;2022-07-09T13:44:37;18.95;;;13.57;;
15677;SDS011;7939;50.814;6.368;2022-07-09T13:47:04;18.48;;;14.25;;
15677;SDS011;7939;50.814;6.368;2022-07-09T13:49:31;16.48;;;14.75;;
15677;SDS011;7939;50.814;6.368;2022-07-09T13:51:59;17.73;;;13.77;;
15677;SDS011;7939;50.814;6.368;2022-07-09T13:54:26;17.73;;;14.90;;
15677;SDS011;7939;50.814;6.368;2022-07-09T13:56:54;15.55;;;13.38;;
15677;SDS011;7939;50.814;6.368;2022-07-09T13:59:21;22.30;;;15.23;;
15677;SDS011;7939;50.814;6.368;2022-07-09T14:01:47;17.70;;;15.27;;
15677;SDS011;7939;50.814;6.368;2022-07-09T14:04:14;20.02;;;15.35;;
15677;SDS011;7939;50.814;6.368;2022-07-09T14:06:41;15.05;;;13.43;;
15677;SDS011;7939;50.814;6.368;2022-07-09T14:09:09;16.67;;;12.65;;
15677;SDS011;7939;50.814;6.368;2022-07-09T14:11:36;11.35;;;9.98;;
15677;SDS011;7939;50.814;6.368;2022-07-09T14:14:02;10.02;;;8.98;;
15677;SDS011;7939;50.814;6.368;2022-07-09T14:16:29;11.00;;;8.05;;
15677;SDS011;7939;50.814;6.368;2022-07-09T14:18:56;9.40;;;7.20;;
15677;SDS011;7939;50.814;6.368;2022-07-09T14:21:22;11.43;;;8.05;;
15677;SDS011;7939;50.814;6.368;2022-07-09T14:23:49;6.38;;;5.60;;
15677;SDS011;7939;50.814;6.368;2022-07-09T14:26:17;5.38;;;4.88;;
15677;SDS011;7939;50.814;6.368;2022-07-09T14:28:43;3.80;;;3.50;;
15677;SDS011;7939;50.814;6.368;2022-07-09T14:31:10;5.35;;;3.60;;
15677;SDS011;7939;50.814;6.368;2022-07-09T14:33:37;4.45;;;3.25;;
15677;SDS011;7939;50.814;6.368;2022-07-09T14:36:04;2.40;;;2.20;;
15677;SDS011;7939;50.814;6.368;2022-07-09T14:38:31;2.88;;;2.30;;
15677;SDS011;7939;50.814;6.368;2022-07-09T14:40:57;4.55;;;2.17;;
15677;SDS011;7939;50.814;6.368;2022-07-09T14:43:25;4.15;;;2.38;;
15677;SDS011;7939;50.814;6.368;2022-07-09T14:45:52;4.10;;;2.13;;
15677;SDS011;7939;50.814;6.368;2022-07-09T14:48:18;3.30;;;2.20;;
15677;SDS011;7939;50.814;6.368;2022-07-09T14:50:45;4.38;;;2.30;;
15677;SDS011;7939;50.814;6.368;2022-07-09T14:53:12;3.45;;;2.03;;
15677;SDS011;7939;50.814;6.368;2022-07-09T14:55:38;2.88;;;1.92;;
15677;SDS011;7939;50.814;6.368;2022-07-09T14:58:05;2.72;;;1.85;;
15677;SDS011;7939;50.814;6.368;2022-07-09T15:00:33;1.48;;;1.38;;